Time;durP1;ratioP1;P1;durP2;ratioP2;P2;SDS_P1;SDS_P2;PMS_P1;PMS_P2;Temp;Humidity;BMP_temperature;BMP_pressure;BME280_temperature;BME280_humidity;BME280_pressure;Samples;Min_cycle;Max_cycle;Signal;HPM_P1;HPM_P2
2022/12/29 00:00:13;;;;;;;1.60;1.50;;;;;;;13.48;61.72;99720.38;685349;28;1087;-80
2022/12/29 00:00:34;;;;;;;1.70;1.60;;;;;;;13.49;61.64;99737.84;685446;28;1180;-80
2022/12/29 00:00:55;;;;;;;1.80;1.70;;;;;;;13.48;61.82;99719.47;685558;28;1135;-81
2022/12/29 00:01:16;;;;;;;1.80;1.70;;;;;;;13.41;62.07;99727.34;682736;29;1292;-80
2022/12/29 00:01:37;;;;;;;1.80;1.70;;;;;;;13.42;61.78;99730.84;682691;29;1132;-80
2022/12/29 00:01:57;;;;;;;1.63;1.52;;;;;;;13.42;62.03;99718.59;685604;28;1165;-79
2022/12/29 00:02:18;;;;;;;1.60;1.50;;;;;;;13.45;61.77;99729.97;685469;28;1016;-79
2022/12/29 00:02:39;;;;;;;1.45;1.35;;;;;;;13.49;61.96;99729.09;682856;28;1315;-80
2022/12/29 00:02:59;;;;;;;1.50;1.40;;;;;;;13.61;61.72;99729.09;682749;28;1059;-80
2022/12/29 00:03:20;;;;;;;1.60;1.50;;;;;;;13.51;61.81;99711.63;682552;28;1104;-80
2022/12/29 00:03:40;;;;;;;1.70;1.60;;;;;;;13.53;61.42;99717.75;682844;29;1306;-80
2022/12/29 00:04:01;;;;;;;1.70;1.60;;;;;;;13.55;61.76;99710.75;682858;28;840;-79
2022/12/29 00:04:22;;;;;;;1.70;1.60;;;;;;;13.64;61.79;99722.97;685571;28;994;-80
2022/12/29 00:04:43;;;;;;;2.38;1.50;;;;;;;13.56;61.59;99709.88;688167;28;1111;-80
2022/12/29 00:05:04;;;;;;;2.20;1.50;;;;;;;13.55;61.59;99710.75;688289;28;1156;-80
2022/12/29 00:05:24;;;;;;;2.20;1.30;;;;;;;13.55;61.54;99715.97;688517;28;1195;-80
2022/12/29 00:05:45;;;;;;;1.50;1.40;;;;;;;13.48;61.63;99698.50;690952;28;990;-80
2022/12/29 00:06:05;;;;;;;1.50;1.40;;;;;;;13.46;61.47;99700.28;685482;28;1193;-80
2022/12/29 00:06:27;;;;;;;1.50;1.40;;;;;;;13.46;61.63;99690.66;690851;28;1558;-80
2022/12/29 00:06:48;;;;;;;1.50;1.40;;;;;;;13.47;61.80;99694.16;685370;28;998;-80
2022/12/29 00:07:09;;;;;;;1.47;1.37;;;;;;;13.46;61.72;99700.28;682895;29;1071;-80
2022/12/29 00:07:29;;;;;;;1.50;1.40;;;;;;;13.42;61.78;99694.16;685366;28;1153;-80
2022/12/29 00:07:50;;;;;;;1.50;1.40;;;;;;;13.39;61.70;99684.56;682580;29;1269;-79
2022/12/29 00:08:10;;;;;;;1.70;1.60;;;;;;;13.47;61.82;99692.41;682943;29;1103;-80
2022/12/29 00:08:40;;;;;;;1.60;1.50;;;;;;;13.49;62.05;99698.53;682789;29;1183;-80
2022/12/29 00:09:00;;;;;;;1.48;1.38;;;;;;;13.43;61.79;99702.03;685610;28;851;-80
2022/12/29 00:09:21;;;;;;;1.40;1.30;;;;;;;13.46;62.08;99687.16;685404;28;1299;-80
2022/12/29 00:09:42;;;;;;;1.40;1.30;;;;;;;13.43;61.73;99688.94;688467;28;1126;-80
2022/12/29 00:10:03;;;;;;;1.40;1.40;;;;;;;13.44;62.06;99676.69;688144;28;1083;-80
2022/12/29 00:10:23;;;;;;;1.60;1.50;;;;;;;13.47;61.97;99691.53;688166;28;1230;-80
2022/12/29 00:10:44;;;;;;;1.70;1.60;;;;;;;13.44;61.77;99697.66;690965;28;1127;-80
2022/12/29 00:11:22;;;;;;;2.00;1.70;;;;;;;13.43;62.02;99677.56;690853;28;1142;-80
2022/12/29 00:11:43;;;;;;;1.90;1.60;;;;;;;13.48;62.03;99681.06;688089;28;1234;-78
2022/12/29 00:12:04;;;;;;;1.60;1.50;;;;;;;13.48;61.47;99688.03;688108;28;1169;-81
2022/12/29 00:15:36;;;;;;;1.40;1.30;;;;;;;13.48;61.76;99682.78;690740;28;1219;-80
2022/12/29 00:15:45;;;;;;;1.70;1.60;;;;;;;13.45;61.59;99690.66;690300;28;1114;-80
2022/12/29 00:16:07;;;;;;;1.60;1.50;;;;;;;13.47;61.46;99694.16;688143;28;1107;-79
2022/12/29 00:16:28;;;;;;;1.50;1.40;;;;;;;13.42;61.47;99683.69;687986;28;897;-80
2022/12/29 00:16:48;;;;;;;1.40;1.30;;;;;;;13.52;61.50;99689.78;688035;28;1190;-80
2022/12/29 00:17:09;;;;;;;1.75;1.40;;;;;;;13.54;61.40;99682.78;688031;28;1095;-80
2022/12/29 00:17:30;;;;;;;1.50;1.40;;;;;;;13.60;61.73;99701.13;685473;28;1241;-79
2022/12/29 00:17:50;;;;;;;1.67;1.58;;;;;;;13.49;61.62;99680.19;688156;28;1037;-80
2022/12/29 00:18:11;;;;;;;1.50;1.40;;;;;;;13.46;61.86;99679.31;688179;28;946;-80
2022/12/29 00:18:31;;;;;;;1.70;1.60;;;;;;;13.56;61.66;99686.28;693468;28;1086;-80
2022/12/29 00:18:52;;;;;;;1.50;1.40;;;;;;;13.55;61.29;99687.16;693568;28;1119;-80
2022/12/29 00:35:08;;;;;;;2.10;1.40;;;;;;;13.85;60.21;99673.09;685424;28;1388;-80
2022/12/29 00:35:37;;;;;;;2.20;1.40;;;;;;;13.93;60.24;99661.69;685484;28;1206;-81
2022/12/29 00:36:02;;;;;;;1.27;1.17;;;;;;;13.89;60.25;99652.97;689342;28;937;-80
2022/12/29 00:36:29;;;;;;;1.27;1.17;;;;;;;13.96;59.94;99665.19;687848;28;2010;-80
2022/12/29 00:36:50;;;;;;;1.30;1.20;;;;;;;13.90;60.10;99654.72;687854;28;1261;-80
2022/12/29 00:37:10;;;;;;;1.40;1.30;;;;;;;13.87;60.25;99649.50;688084;28;1276;-80
2022/12/29 00:44:10;;;;;;;1.40;1.30;;;;;;;13.91;60.05;99632.00;682668;28;1021;-80
2022/12/29 00:44:30;;;;;;;1.80;1.30;;;;;;;13.88;60.13;99637.25;685331;28;1065;-80
2022/12/29 00:44:51;;;;;;;2.10;1.30;;;;;;;13.93;60.05;99641.59;685313;28;1116;-80
2022/12/29 00:45:11;;;;;;;2.30;1.20;;;;;;;13.83;60.19;99632.91;682733;28;947;-80
2022/12/29 00:45:32;;;;;;;2.00;1.20;;;;;;;13.88;60.18;99639.88;690794;28;1380;-80
2022/12/29 00:45:52;;;;;;;1.50;1.20;;;;;;;13.85;60.32;99635.50;685559;28;1080;-80
2022/12/29 00:46:13;;;;;;;1.40;1.30;;;;;;;13.90;60.05;99638.13;685405;28;1163;-80
2022/12/29 00:46:35;;;;;;;1.40;1.30;;;;;;;13.97;60.07;99659.06;685369;28;1649;-81
2022/12/29 00:46:56;;;;;;;1.48;1.38;;;;;;;13.95;60.17;99642.47;685278;28;1227;-80
2022/12/29 00:47:16;;;;;;;1.40;1.30;;;;;;;13.90;60.04;99641.59;688019;28;1021;-79
2022/12/29 00:47:37;;;;;;;1.40;1.30;;;;;;;13.91;59.93;99640.75;690934;28;1219;-80
2022/12/29 00:47:57;;;;;;;1.30;1.20;;;;;;;13.96;60.31;99638.09;688129;28;933;-80
2022/12/29 00:49:37;;;;;;;1.15;1.10;;;;;;;13.97;60.18;99651.19;685220;28;1140;-80
2022/12/29 00:49:57;;;;;;;1.30;1.20;;;;;;;13.95;60.12;99666.06;685131;28;1265;-80
2022/12/29 00:50:18;;;;;;;1.40;1.30;;;;;;;13.94;60.09;99638.09;685190;28;1245;-80
2022/12/29 00:50:38;;;;;;;1.50;1.40;;;;;;;13.91;60.23;99635.50;685387;28;989;-81
2022/12/29 00:50:59;;;;;;;1.35;1.25;;;;;;;14.05;60.20;99645.91;682819;28;1206;-80
2022/12/29 00:51:20;;;;;;;1.30;1.20;;;;;;;14.00;60.09;99647.69;682622;29;1305;-81
2022/12/29 00:51:40;;;;;;;1.20;1.10;;;;;;;13.96;60.10;99644.19;685401;28;1255;-80
2022/12/29 00:52:04;;;;;;;1.30;1.20;;;;;;;14.01;60.29;99640.69;688200;28;795;-80
2022/12/29 00:52:25;;;;;;;1.20;1.10;;;;;;;13.93;60.33;99638.09;688086;28;1343;-80
2022/12/29 00:52:46;;;;;;;1.25;1.15;;;;;;;14.01;60.27;99656.44;685436;28;1242;-80
2022/12/29 00:53:06;;;;;;;1.10;1.10;;;;;;;13.98;60.56;99644.22;682707;28;1197;-81
2022/12/29 00:53:27;;;;;;;1.02;1.02;;;;;;;13.97;60.18;99650.34;682810;28;900;-80
2022/12/29 00:53:47;;;;;;;1.15;1.10;;;;;;;13.92;60.28;99642.47;682047;28;1307;-80
2022/12/29 00:54:08;;;;;;;1.30;1.20;;;;;;;14.01;60.29;99645.94;684918;28;1283;-80
2022/12/29 00:54:31;;;;;;;1.30;1.20;;;;;;;13.97;60.41;99639.84;690658;28;1145;-80
2022/12/29 00:54:52;;;;;;;1.10;1.10;;;;;;;13.96;60.27;99635.47;690680;28;1212;-80
2022/12/29 00:55:12;;;;;;;1.10;1.10;;;;;;;13.91;60.52;99666.97;688153;28;1090;-80
2022/12/29 00:55:37;;;;;;;1.20;1.10;;;;;;;14.00;60.70;99642.44;682626;29;974;-80
2022/12/29 00:55:58;;;;;;;1.20;1.10;;;;;;;14.05;60.41;99658.16;685475;28;2093;-80
2022/12/29 00:56:18;;;;;;;1.30;1.20;;;;;;;14.04;60.18;99645.91;685272;28;1915;-81
2022/12/29 00:56:39;;;;;;;1.25;1.15;;;;;;;14.07;60.16;99631.03;685290;28;960;-80
2022/12/29 00:57:01;;;;;;;1.37;1.27;;;;;;;14.10;59.96;99645.91;682813;29;804;-82
2022/12/29 00:57:21;;;;;;;1.10;1.10;;;;;;;14.05;60.16;99640.69;685450;28;1112;-80
2022/12/29 00:57:42;;;;;;;1.30;1.20;;;;;;;14.12;60.33;99654.66;687980;28;1285;-80
2022/12/29 00:58:02;;;;;;;1.10;1.10;;;;;;;14.13;59.91;99650.31;685433;28;1164;-80
2022/12/29 00:58:23;;;;;;;1.20;1.20;;;;;;;14.17;59.76;99650.28;688193;28;1043;-80
2022/12/29 00:58:44;;;;;;;1.20;1.20;;;;;;;14.17;59.96;99645.03;688081;28;984;-81
2022/12/29 00:59:07;;;;;;;1.40;1.30;;;;;;;14.15;59.93;99654.66;685394;28;1625;-81
2022/12/29 00:59:37;;;;;;;1.35;1.25;;;;;;;14.10;59.83;99646.78;690546;28;1950;-80
2022/12/29 00:59:58;;;;;;;1.10;1.10;;;;;;;14.09;60.04;99634.53;690965;28;811;-80
2022/12/29 01:00:19;;;;;;;1.10;1.10;;;;;;;14.04;59.97;99624.94;682738;29;1198;-80
2022/12/29 01:00:39;;;;;;;1.00;1.00;;;;;;;14.13;60.19;99632.78;682751;29;1125;-80
2022/12/29 01:01:15;;;;;;;1.30;1.20;;;;;;;14.16;59.51;99630.16;682927;28;843;-80
2022/12/29 01:01:37;;;;;;;1.40;1.30;;;;;;;14.13;59.87;99624.06;688084;28;1133;-80
2022/12/29 01:01:58;;;;;;;1.20;1.10;;;;;;;14.12;59.79;99638.91;688225;28;817;-81
2022/12/29 01:02:18;;;;;;;1.10;1.00;;;;;;;14.04;60.19;99635.44;690610;28;1351;-80
2022/12/29 01:02:41;;;;;;;0.90;0.90;;;;;;;14.02;60.03;99626.69;688048;28;992;-80
2022/12/29 01:03:01;;;;;;;0.98;0.98;;;;;;;14.02;59.96;99631.94;685571;28;779;-79
2022/12/29 01:03:22;;;;;;;1.10;1.10;;;;;;;14.04;60.11;99657.31;685399;28;1292;-80
2022/12/29 01:03:42;;;;;;;1.23;1.20;;;;;;;14.04;60.11;99627.56;685520;28;1032;-80
2022/12/29 01:04:04;;;;;;;1.30;1.20;;;;;;;14.00;60.26;99644.22;685419;28;1102;-80
2022/12/29 01:04:25;;;;;;;1.30;1.20;;;;;;;14.05;59.96;99635.44;685685;28;1046;-81
2022/12/29 01:04:46;;;;;;;1.10;1.10;;;;;;;13.96;60.33;99628.47;685293;28;1361;-80
2022/12/29 01:05:07;;;;;;;1.20;1.20;;;;;;;14.08;60.36;99643.28;688049;28;1118;-80
2022/12/29 01:05:27;;;;;;;1.17;1.17;;;;;;;14.06;60.32;99650.28;690831;28;1159;-80
2022/12/29 01:05:48;;;;;;;1.10;1.10;;;;;;;14.09;60.26;99646.78;682719;28;1180;-81
2022/12/29 01:06:10;;;;;;;1.00;1.00;;;;;;;13.98;60.51;99634.59;685439;28;1127;-80
2022/12/29 01:06:32;;;;;;;1.00;1.00;;;;;;;13.93;60.54;99630.22;688034;28;1163;-80
2022/12/29 01:06:53;;;;;;;1.30;1.20;;;;;;;13.97;60.56;99634.59;685193;28;1432;-80
2022/12/29 01:07:13;;;;;;;1.70;1.20;;;;;;;13.93;60.82;99619.75;682715;29;1377;-80
2022/12/29 01:07:34;;;;;;;1.70;1.20;;;;;;;14.01;60.52;99641.56;685507;28;1064;-81
2022/12/29 01:07:56;;;;;;;1.30;1.10;;;;;;;13.96;60.53;99623.22;688093;28;1388;-80
2022/12/29 01:08:17;;;;;;;1.17;1.08;;;;;;;13.94;60.50;99629.34;687912;28;1453;-80
2022/12/29 01:08:39;;;;;;;1.02;1.00;;;;;;;13.98;60.68;99642.47;685386;28;1001;-80
2022/12/29 01:10:21;;;;;;;1.10;1.00;;;;;;;14.05;60.64;99637.16;682541;28;983;-79
2022/12/29 01:10:41;;;;;;;1.30;1.13;;;;;;;14.06;60.38;99644.16;685257;28;1068;-80
2022/12/29 01:11:04;;;;;;;2.10;1.20;;;;;;;14.18;60.17;99638.91;682694;28;1174;-80
2022/12/29 01:11:25;;;;;;;2.58;1.20;;;;;;;13.97;60.54;99624.97;685351;28;1014;-78
2022/12/29 01:11:46;;;;;;;2.20;1.10;;;;;;;14.10;60.46;99638.03;685299;28;1169;-80
2022/12/29 01:12:08;;;;;;;1.20;1.08;;;;;;;13.98;60.58;99616.25;682693;29;1184;-80
2022/12/29 01:12:40;;;;;;;1.10;1.00;;;;;;;13.97;60.47;99630.19;682733;29;1033;-80
2022/12/29 01:13:03;;;;;;;1.10;0.90;;;;;;;13.97;60.60;99629.34;682599;29;1098;-80
2022/12/29 01:13:24;;;;;;;1.10;1.00;;;;;;;13.98;60.72;99625.84;685389;28;923;-79
2022/12/29 01:13:44;;;;;;;1.10;1.00;;;;;;;14.03;60.67;99625.81;682631;28;1249;-80
2022/12/29 01:14:06;;;;;;;1.30;1.20;;;;;;;14.08;60.72;99635.41;685398;28;1175;-79
2022/12/29 01:14:27;;;;;;;1.13;1.13;;;;;;;14.06;60.35;99621.44;685449;28;1057;-80
2022/12/29 01:14:48;;;;;;;1.30;1.20;;;;;;;14.09;60.56;99652.03;688007;28;1253;-80
2022/12/29 01:15:10;;;;;;;1.27;1.17;;;;;;;14.07;60.42;99636.28;688094;28;1042;-80
2022/12/29 01:15:31;;;;;;;1.20;1.10;;;;;;;14.13;60.46;99629.31;688549;28;1057;-80
2022/12/29 01:15:53;;;;;;;1.20;1.00;;;;;;;14.18;60.23;99645.88;693986;28;1122;-79
2022/12/29 01:16:13;;;;;;;2.35;1.10;;;;;;;14.17;60.17;99626.66;693835;28;1910;-80
2022/12/29 01:16:38;;;;;;;2.30;1.10;;;;;;;14.16;60.20;99618.78;688529;28;1016;-80
2022/12/29 01:16:59;;;;;;;1.80;1.10;;;;;;;14.22;59.98;99630.16;685819;28;815;-80
2022/12/29 01:17:20;;;;;;;1.00;1.00;;;;;;;14.15;60.12;99622.28;685818;28;1293;-80
2022/12/29 01:17:41;;;;;;;1.02;1.02;;;;;;;14.14;60.00;99612.69;688516;28;1201;-80
2022/12/29 01:18:02;;;;;;;1.00;1.00;;;;;;;14.15;60.18;99615.31;688674;28;1072;-79
2022/12/29 01:18:24;;;;;;;1.10;1.00;;;;;;;14.22;60.12;99640.63;683123;28;1208;-80
2022/12/29 01:18:45;;;;;;;1.10;1.00;;;;;;;14.17;60.02;99634.53;685964;28;1032;-80
2022/12/29 01:19:06;;;;;;;1.40;1.00;;;;;;;14.11;60.35;99638.06;685835;28;1297;-80
2022/12/29 01:19:27;;;;;;;1.20;1.00;;;;;;;14.07;60.36;99640.69;688650;28;933;-80
2022/12/29 01:19:49;;;;;;;1.23;1.00;;;;;;;14.10;60.48;99646.78;683104;29;1113;-81
2022/12/29 01:20:11;;;;;;;1.10;1.00;;;;;;;14.13;60.23;99630.16;685981;28;986;-80
2022/12/29 01:20:31;;;;;;;1.10;1.00;;;;;;;14.28;60.17;99638.84;685847;28;1238;-80
2022/12/29 01:21:05;;;;;;;1.10;1.00;;;;;;;14.33;60.08;99626.56;688581;28;1115;-80
2022/12/29 01:21:25;;;;;;;2.20;1.10;;;;;;;14.34;59.61;99618.72;685821;28;1204;-80
2022/12/29 01:21:46;;;;;;;2.20;1.00;;;;;;;14.35;59.64;99624.81;685800;28;1280;-79
2022/12/29 01:22:07;;;;;;;1.10;1.00;;;;;;;14.38;59.25;99630.91;685941;28;857;-79
2022/12/29 01:22:28;;;;;;;1.10;0.90;;;;;;;14.35;59.87;99633.56;688555;28;1074;-79
2022/12/29 01:22:49;;;;;;;1.50;1.00;;;;;;;14.23;59.72;99615.25;688535;28;1096;-80
2022/12/29 01:23:14;;;;;;;1.23;1.00;;;;;;;14.28;59.64;99615.22;685709;28;1123;-80
2022/12/29 01:23:46;;;;;;;3.00;1.20;;;;;;;14.24;59.83;99633.63;685987;28;1333;-80
2022/12/29 01:24:06;;;;;;;2.70;1.15;;;;;;;14.27;59.90;99616.09;683200;28;1025;-80
2022/12/29 01:24:38;;;;;;;1.00;1.00;;;;;;;14.33;59.76;99637.06;683091;29;1024;-80
2022/12/29 01:24:58;;;;;;;1.10;1.00;;;;;;;14.15;60.01;99625.81;683099;28;1115;-80
2022/12/29 01:25:19;;;;;;;1.10;1.00;;;;;;;14.10;60.25;99635.41;683153;29;1056;-80
2022/12/29 01:25:39;;;;;;;1.20;1.10;;;;;;;14.15;60.16;99633.69;685828;28;1303;-80
2022/12/29 01:26:13;;;;;;;1.30;1.20;;;;;;;14.11;60.32;99637.19;688602;28;1281;-80
2022/12/29 01:26:34;;;;;;;1.30;1.20;;;;;;;13.94;60.79;99630.22;688541;28;1023;-79
2022/12/29 01:26:54;;;;;;;1.27;1.17;;;;;;;14.05;60.81;99634.53;683144;29;808;-79
2022/12/29 01:27:15;;;;;;;1.30;1.20;;;;;;;14.00;61.06;99621.47;685987;28;1306;-80
2022/12/29 01:27:41;;;;;;;1.27;1.17;;;;;;;14.01;61.12;99630.22;685902;28;1165;-80
2022/12/29 01:28:02;;;;;;;1.20;1.10;;;;;;;14.07;61.14;99648.56;688502;28;1288;-80
2022/12/29 01:28:23;;;;;;;1.10;1.00;;;;;;;14.00;61.35;99625.84;691226;28;1166;-80
2022/12/29 01:28:44;;;;;;;1.10;1.00;;;;;;;14.03;61.39;99638.94;688555;28;1196;-80
2022/12/29 01:29:05;;;;;;;0.90;0.90;;;;;;;14.06;61.42;99623.16;688530;28;1221;-80
2022/12/29 01:29:25;;;;;;;1.00;0.90;;;;;;;13.81;61.67;99628.53;688584;28;1097;-80
2022/12/29 01:29:46;;;;;;;1.00;0.90;;;;;;;13.71;61.98;99618.06;685894;28;985;-80
2022/12/29 01:30:07;;;;;;;1.00;0.90;;;;;;;13.65;62.13;99623.34;688656;28;983;-80
2022/12/29 01:30:28;;;;;;;0.90;0.90;;;;;;;13.69;62.48;99632.94;688570;28;917;-80
2022/12/29 01:30:49;;;;;;;0.90;0.90;;;;;;;13.61;62.34;99620.72;691264;28;1168;-79
2022/12/29 01:31:26;;;;;;;0.80;0.80;;;;;;;13.48;62.97;99623.41;685734;28;1146;-80
2022/12/29 01:31:49;;;;;;;1.00;1.00;;;;;;;13.52;63.15;99642.63;688222;28;1429;-79
2022/12/29 01:32:09;;;;;;;1.20;1.10;;;;;;;13.52;63.14;99619.88;685825;28;1291;-80
2022/12/29 01:32:30;;;;;;;1.10;1.00;;;;;;;13.46;63.30;99621.66;685884;28;1116;-80
2022/12/29 01:32:52;;;;;;;0.90;0.90;;;;;;;13.53;63.25;99628.63;686280;28;1163;-79
2022/12/29 01:33:14;;;;;;;0.90;0.90;;;;;;;13.45;63.58;99620.78;688447;28;1276;-80
2022/12/29 01:33:35;;;;;;;0.90;0.90;;;;;;;13.51;63.37;99617.28;688419;28;1271;-80
2022/12/29 01:33:56;;;;;;;1.20;1.10;;;;;;;13.48;63.81;99622.50;688650;28;1037;-80
2022/12/29 01:34:17;;;;;;;1.30;1.20;;;;;;;13.52;63.67;99632.13;688497;28;1326;-80
2022/12/29 01:34:38;;;;;;;1.30;1.20;;;;;;;13.51;63.51;99615.50;688511;28;1218;-79
2022/12/29 01:34:58;;;;;;;1.10;1.00;;;;;;;13.50;63.36;99612.91;688597;28;1101;-80
2022/12/29 01:35:19;;;;;;;1.00;0.90;;;;;;;13.45;63.65;99599.81;685908;28;1060;-79
2022/12/29 01:35:40;;;;;;;0.90;0.90;;;;;;;13.43;63.52;99609.44;691098;28;1169;-79
2022/12/29 01:36:04;;;;;;;1.00;1.00;;;;;;;13.55;63.72;99642.59;691258;28;1187;-79
2022/12/29 01:36:25;;;;;;;0.90;0.90;;;;;;;13.53;63.77;99631.25;685615;28;1919;-79
2022/12/29 01:36:45;;;;;;;1.00;1.00;;;;;;;13.50;63.77;99623.38;685646;28;1044;-79
2022/12/29 01:37:07;;;;;;;0.90;0.90;;;;;;;13.45;63.73;99620.78;689188;28;1066;-80
2022/12/29 01:37:27;;;;;;;1.15;1.10;;;;;;;13.50;64.10;99633.84;685942;28;1194;-79
2022/12/29 01:37:48;;;;;;;1.10;1.00;;;;;;;13.45;63.91;99625.16;685841;28;1218;-80
2022/12/29 01:38:09;;;;;;;1.02;1.00;;;;;;;13.54;63.76;99633.84;685838;28;1315;-79
2022/12/29 01:38:29;;;;;;;0.83;0.83;;;;;;;13.46;63.83;99632.13;685810;28;1230;-80
2022/12/29 01:38:50;;;;;;;0.90;0.80;;;;;;;13.56;63.85;99628.59;688553;28;1233;-79
2022/12/29 01:39:11;;;;;;;1.00;0.90;;;;;;;13.49;63.76;99613.78;688313;28;1131;-79
2022/12/29 01:39:32;;;;;;;1.17;1.00;;;;;;;13.51;63.95;99598.94;685973;28;844;-79
2022/12/29 01:39:53;;;;;;;1.20;1.10;;;;;;;13.46;63.97;99617.25;688579;28;803;-80
2022/12/29 01:40:13;;;;;;;1.30;1.20;;;;;;;13.47;63.64;99618.16;685703;28;1109;-79
2022/12/29 01:40:34;;;;;;;1.38;1.27;;;;;;;13.42;63.82;99611.16;685786;28;1181;-80
2022/12/29 01:40:54;;;;;;;1.30;1.20;;;;;;;13.51;63.71;99617.28;688576;28;872;-80
2022/12/29 01:41:16;;;;;;;1.00;1.00;;;;;;;13.51;63.75;99640.88;691186;28;979;-80
2022/12/29 01:41:37;;;;;;;1.10;1.00;;;;;;;13.52;63.87;99617.25;691291;28;1170;-80
2022/12/29 01:41:58;;;;;;;1.20;1.10;;;;;;;13.57;63.86;99625.09;688599;28;770;-79
2022/12/29 01:42:23;;;;;;;1.20;1.10;;;;;;;13.61;63.84;99639.97;685648;28;1336;-79
2022/12/29 01:42:44;;;;;;;1.20;1.10;;;;;;;13.51;63.84;99625.16;688415;28;1342;-80
2022/12/29 01:43:10;;;;;;;0.90;0.90;;;;;;;13.57;63.95;99619.88;688454;28;1124;-79
2022/12/29 01:43:43;;;;;;;1.10;1.00;;;;;;;13.55;63.62;99611.16;683156;29;926;-79
2022/12/29 01:44:42;;;;;;;1.10;1.00;;;;;;;13.57;63.82;99620.75;683097;29;1093;-80
2022/12/29 01:45:14;;;;;;;0.90;0.90;;;;;;;13.43;64.15;99599.84;690184;28;1226;-79
2022/12/29 01:45:35;;;;;;;1.08;1.00;;;;;;;13.51;63.84;99612.03;691223;28;1118;-80
2022/12/29 01:45:55;;;;;;;0.90;0.90;;;;;;;13.50;64.14;99612.91;687293;28;1025;-79
2022/12/29 01:46:26;;;;;;;1.00;0.90;;;;;;;13.56;63.86;99619.00;688564;28;1083;-80
2022/12/29 01:46:49;;;;;;;1.00;0.90;;;;;;;13.53;64.04;99613.75;685529;28;1977;-80
2022/12/29 01:47:10;;;;;;;1.10;1.00;;;;;;;13.57;64.07;99609.38;688462;28;1097;-80
2022/12/29 01:47:44;;;;;;;1.90;1.00;;;;;;;13.62;64.14;99628.59;685784;28;1240;-80
2022/12/29 01:48:08;;;;;;;1.70;1.00;;;;;;;13.54;63.93;99620.75;683202;29;1030;-80
2022/12/29 01:48:29;;;;;;;0.82;0.82;;;;;;;13.61;64.13;99619.00;685704;28;1246;-79
2022/12/29 01:48:54;;;;;;;0.90;0.90;;;;;;;13.62;63.96;99606.75;683047;28;1195;-80
2022/12/29 01:49:21;;;;;;;0.90;0.90;;;;;;;13.66;63.77;99617.22;685803;28;1101;-80
2022/12/29 01:49:41;;;;;;;1.00;1.00;;;;;;;13.64;63.61;99602.38;688295;28;1024;-80
2022/12/29 01:50:07;;;;;;;1.05;0.90;;;;;;;13.65;63.75;99591.88;685853;28;1149;-79
2022/12/29 01:50:37;;;;;;;0.98;0.80;;;;;;;13.75;63.52;99628.56;685810;28;1103;-80
2022/12/29 01:50:58;;;;;;;1.00;0.80;;;;;;;13.74;63.43;99598.84;688551;28;1253;-80
2022/12/29 01:51:21;;;;;;;0.80;0.80;;;;;;;13.74;63.21;99601.47;683115;28;1017;-79
2022/12/29 01:52:03;;;;;;;0.80;0.80;;;;;;;13.73;63.53;99596.22;685780;28;1082;-80
2022/12/29 01:52:28;;;;;;;1.10;0.90;;;;;;;13.76;62.97;99593.59;685835;28;943;-79
2022/12/29 01:53:01;;;;;;;1.58;1.10;;;;;;;13.75;63.13;99589.25;688338;28;1268;-79
2022/12/29 01:53:30;;;;;;;1.10;0.98;;;;;;;13.84;63.07;99604.94;685755;28;1029;-79
2022/12/29 01:53:52;;;;;;;0.80;0.80;;;;;;;13.77;63.12;99598.81;683080;28;1128;-80
2022/12/29 01:54:18;;;;;;;0.82;0.82;;;;;;;13.71;62.88;99597.09;685685;28;1064;-79
2022/12/29 01:54:51;;;;;;;0.90;0.90;;;;;;;13.69;63.35;99604.13;685825;28;1104;-80
2022/12/29 01:55:12;;;;;;;1.00;1.00;;;;;;;13.74;63.15;99605.81;685877;28;1022;-80
2022/12/29 01:55:38;;;;;;;0.90;0.90;;;;;;;13.74;63.13;99605.81;685724;28;1135;-79
2022/12/29 01:56:07;;;;;;;1.00;1.00;;;;;;;13.59;63.44;99591.94;683148;29;1085;-79
2022/12/29 01:56:27;;;;;;;0.80;0.80;;;;;;;13.57;63.27;99591.91;683101;28;1908;-80
2022/12/29 01:56:50;;;;;;;0.90;0.90;;;;;;;13.58;63.18;99611.13;682880;28;1212;-80
2022/12/29 01:57:16;;;;;;;0.90;0.90;;;;;;;13.54;63.59;99593.69;685885;28;1249;-80
2022/12/29 01:57:41;;;;;;;1.45;0.98;;;;;;;13.53;63.92;99594.56;685779;28;1096;-79
2022/12/29 01:58:04;;;;;;;1.40;1.00;;;;;;;13.53;63.77;99598.03;688492;28;814;-80
2022/12/29 01:58:30;;;;;;;1.30;1.10;;;;;;;13.39;64.10;99584.97;685729;28;1344;-80
2022/12/29 01:58:58;;;;;;;0.80;0.80;;;;;;;13.36;64.21;99582.38;691001;28;1174;-80
2022/12/29 01:59:27;;;;;;;0.80;0.80;;;;;;;13.38;64.07;99587.59;685692;28;1164;-80
2022/12/29 01:59:56;;;;;;;0.80;0.80;;;;;;;13.36;64.30;99585.00;683094;28;1113;-80
2022/12/29 02:00:17;;;;;;;0.90;0.90;;;;;;;13.38;64.27;99601.59;685632;28;1149;-80
2022/12/29 02:00:41;;;;;;;1.05;0.95;;;;;;;13.39;64.19;99621.66;688301;28;1220;-80
2022/12/29 02:01:02;;;;;;;1.10;0.90;;;;;;;13.40;64.28;99607.69;688527;28;1053;-80
2022/12/29 02:01:23;;;;;;;1.10;0.77;;;;;;;13.40;64.57;99591.97;688541;28;985;-80
2022/12/29 02:01:44;;;;;;;0.73;0.70;;;;;;;13.38;64.47;99600.69;688413;28;1164;-80
2022/12/29 02:02:06;;;;;;;0.80;0.80;;;;;;;13.40;64.67;99599.81;693883;28;1152;-80
2022/12/29 02:02:27;;;;;;;0.80;0.80;;;;;;;13.31;64.57;99602.47;691241;28;995;-80
2022/12/29 02:02:52;;;;;;;0.80;0.80;;;;;;;13.31;64.62;99591.97;688469;28;816;-80
2022/12/29 02:03:14;;;;;;;0.80;0.80;;;;;;;13.38;64.45;99603.31;685783;28;1101;-80
2022/12/29 02:03:35;;;;;;;0.80;0.80;;;;;;;13.33;64.44;99585.00;685686;28;1134;-80
2022/12/29 02:03:56;;;;;;;0.80;0.80;;;;;;;13.28;64.42;99592.00;691238;28;796;-80
2022/12/29 02:04:18;;;;;;;0.80;0.80;;;;;;;13.31;64.53;99602.47;691040;28;1249;-80
2022/12/29 02:04:45;;;;;;;0.95;0.85;;;;;;;13.41;64.46;99604.19;688411;28;1285;-80
2022/12/29 02:05:17;;;;;;;0.90;0.90;;;;;;;13.36;64.44;99611.19;691038;28;1262;-80
2022/12/29 02:06:20;;;;;;;0.90;0.90;;;;;;;13.44;64.44;99605.94;688309;28;1354;-80
2022/12/29 02:06:55;;;;;;;0.80;0.80;;;;;;;13.43;64.32;99594.59;680008;29;1239;-80
2022/12/29 02:07:22;;;;;;;0.80;0.80;;;;;;;13.42;64.20;99584.09;682896;29;1110;-80
2022/12/29 02:07:44;;;;;;;1.00;0.90;;;;;;;13.37;64.32;99581.50;680216;29;1363;-80
2022/12/29 02:08:05;;;;;;;1.10;1.00;;;;;;;13.38;64.20;99593.72;680195;29;1183;-79
2022/12/29 02:08:29;;;;;;;1.05;0.98;;;;;;;13.38;64.38;99591.09;680274;29;1034;-79
2022/12/29 02:08:52;;;;;;;0.88;0.88;;;;;;;13.40;64.26;99597.19;680229;29;1237;-78
2022/12/29 02:09:12;;;;;;;0.80;0.80;;;;;;;13.20;64.56;99593.78;682928;28;1125;-79
2022/12/29 02:09:33;;;;;;;0.80;0.80;;;;;;;13.19;65.04;99597.22;682958;29;1060;-79
2022/12/29 02:09:55;;;;;;;0.90;0.90;;;;;;;13.20;65.09;99596.38;685806;28;772;-80
2022/12/29 02:10:15;;;;;;;0.90;0.90;;;;;;;13.15;65.17;99591.16;685508;28;1279;-80
2022/12/29 02:10:37;;;;;;;0.90;0.90;;;;;;;13.14;65.09;99590.28;682937;29;1073;-80
2022/12/29 02:11:00;;;;;;;0.90;0.90;;;;;;;13.12;65.14;99592.03;680414;29;1245;-80
2022/12/29 02:11:23;;;;;;;1.00;1.00;;;;;;;13.19;65.04;99599.84;682969;29;1108;-80
2022/12/29 02:11:43;;;;;;;0.90;0.90;;;;;;;13.20;65.42;99588.53;682928;28;1253;-79
2022/12/29 02:12:04;;;;;;;0.82;0.82;;;;;;;13.08;65.47;99585.03;685741;28;1112;-79
2022/12/29 02:12:25;;;;;;;0.80;0.80;;;;;;;13.18;65.26;99605.97;680296;29;1119;-79
2022/12/29 02:12:47;;;;;;;0.80;0.80;;;;;;;13.16;65.31;99569.31;682420;29;1136;-80
2022/12/29 02:13:07;;;;;;;0.88;0.88;;;;;;;13.16;65.26;99598.13;683093;29;1883;-79
2022/12/29 02:13:28;;;;;;;0.90;0.90;;;;;;;13.18;65.35;99609.47;683022;29;1134;-80
2022/12/29 02:13:50;;;;;;;0.90;0.90;;;;;;;13.15;65.17;99591.16;685667;28;1312;-80
2022/12/29 02:14:12;;;;;;;0.90;0.90;;;;;;;13.19;65.11;99578.91;691090;28;1039;-80
2022/12/29 02:14:33;;;;;;;1.00;0.90;;;;;;;13.29;65.58;99586.75;688342;28;1533;-79
2022/12/29 02:15:01;;;;;;;1.00;0.90;;;;;;;13.31;65.27;99602.47;685872;28;843;-80
2022/12/29 02:15:57;;;;;;;1.00;0.80;;;;;;;13.28;65.18;99576.28;683024;29;1277;-80
2022/12/29 02:16:34;;;;;;;0.80;0.80;;;;;;;13.26;65.15;99580.63;688251;28;1911;-80
2022/12/29 02:17:12;;;;;;;0.80;0.80;;;;;;;13.33;65.10;99600.72;688199;28;1104;-80
2022/12/29 02:17:53;;;;;;;0.80;0.80;;;;;;;13.34;64.67;99573.63;683034;29;1201;-80
2022/12/29 02:18:19;;;;;;;1.10;0.85;;;;;;;13.42;64.74;99595.44;688294;28;1149;-80
2022/12/29 02:19:17;;;;;;;1.20;0.90;;;;;;;13.47;64.75;99603.31;688370;28;959;-80
2022/12/29 02:19:59;;;;;;;0.90;0.90;;;;;;;13.47;64.48;99578.84;688424;28;1028;-80
2022/12/29 02:20:38;;;;;;;1.08;0.80;;;;;;;13.52;64.42;99596.28;691075;28;1131;-80